sensor_id;sensor_type;location;lat;lon;timestamp;temperature;humidity
24676;DHT22;12799;53.690;10.114;2022-11-15T00:00:37;6.10;99.90
24676;DHT22;12799;53.690;10.114;2022-11-15T00:02:39;6.00;99.90
24676;DHT22;12799;53.690;10.114;2022-11-15T00:04:41;6.00;99.90
24676;DHT22;12799;53.690;10.114;2022-11-15T00:06:42;6.00;99.90
24676;DHT22;12799;53.690;10.114;2022-11-15T00:08:44;6.00;99.90
24676;DHT22;12799;53.690;10.114;2022-11-15T00:10:53;6.00;99.90
24676;DHT22;12799;53.690;10.114;2022-11-15T00:12:56;6.00;99.90
24676;DHT22;12799;53.690;10.114;2022-11-15T00:14:58;6.00;99.90
24676;DHT22;12799;53.690;10.114;2022-11-15T00:17:00;6.00;99.90
24676;DHT22;12799;53.690;10.114;2022-11-15T00:19:02;6.00;99.90
24676;DHT22;12799;53.690;10.114;2022-11-15T00:21:04;6.00;99.90
24676;DHT22;12799;53.690;10.114;2022-11-15T00:23:07;6.10;99.90
24676;DHT22;12799;53.690;10.114;2022-11-15T00:25:09;6.00;99.90
24676;DHT22;12799;53.690;10.114;2022-11-15T00:27:11;6.10;99.90
24676;DHT22;12799;53.690;10.114;2022-11-15T00:29:14;6.00;99.90
24676;DHT22;12799;53.690;10.114;2022-11-15T00:31:16;6.00;99.90
24676;DHT22;12799;53.690;10.114;2022-11-15T00:33:18;6.00;99.90
24676;DHT22;12799;53.690;10.114;2022-11-15T00:35:20;6.00;99.90
24676;DHT22;12799;53.690;10.114;2022-11-15T00:37:22;6.10;99.90
24676;DHT22;12799;53.690;10.114;2022-11-15T00:39:24;6.10;99.90
24676;DHT22;12799;53.690;10.114;2022-11-15T00:41:26;6.00;99.90
24676;DHT22;12799;53.690;10.114;2022-11-15T00:43:28;6.00;99.90
24676;DHT22;12799;53.690;10.114;2022-11-15T00:45:31;5.90;99.90
24676;DHT22;12799;53.690;10.114;2022-11-15T00:47:33;6.00;99.90
24676;DHT22;12799;53.690;10.114;2022-11-15T00:49:35;6.00;99.90
24676;DHT22;12799;53.690;10.114;2022-11-15T00:51:36;5.90;99.90
24676;DHT22;12799;53.690;10.114;2022-11-15T00:53:38;6.00;99.90
24676;DHT22;12799;53.690;10.114;2022-11-15T00:55:40;6.00;99.90
24676;DHT22;12799;53.690;10.114;2022-11-15T00:57:42;5.90;99.90
24676;DHT22;12799;53.690;10.114;2022-11-15T00:59:44;6.00;99.90
24676;DHT22;12799;53.690;10.114;2022-11-15T01:01:47;5.90;99.90
24676;DHT22;12799;53.690;10.114;2022-11-15T01:03:49;5.90;99.90
24676;DHT22;12799;53.690;10.114;2022-11-15T01:05:51;5.80;99.90
24676;DHT22;12799;53.690;10.114;2022-11-15T01:07:53;5.80;99.90
24676;DHT22;12799;53.690;10.114;2022-11-15T01:09:54;5.90;99.90
24676;DHT22;12799;53.690;10.114;2022-11-15T01:11:56;5.90;99.90
24676;DHT22;12799;53.690;10.114;2022-11-15T01:13:58;5.90;99.90
24676;DHT22;12799;53.690;10.114;2022-11-15T01:16:05;5.90;99.90
24676;DHT22;12799;53.690;10.114;2022-11-15T01:18:09;5.80;99.90
24676;DHT22;12799;53.690;10.114;2022-11-15T01:20:11;5.70;99.90
24676;DHT22;12799;53.690;10.114;2022-11-15T01:22:13;5.80;99.90
24676;DHT22;12799;53.690;10.114;2022-11-15T01:24:15;5.80;99.90
24676;DHT22;12799;53.690;10.114;2022-11-15T01:26:17;5.80;99.90
24676;DHT22;12799;53.690;10.114;2022-11-15T01:28:19;5.80;99.90
24676;DHT22;12799;53.690;10.114;2022-11-15T01:30:20;5.90;99.90
24676;DHT22;12799;53.690;10.114;2022-11-15T01:32:22;5.80;99.90
24676;DHT22;12799;53.690;10.114;2022-11-15T01:36:29;5.80;99.90
24676;DHT22;12799;53.690;10.114;2022-11-15T01:38:31;5.80;99.90
24676;DHT22;12799;53.690;10.114;2022-11-15T01:40:32;5.70;99.90
24676;DHT22;12799;53.690;10.114;2022-11-15T01:42:34;5.80;99.90
24676;DHT22;12799;53.690;10.114;2022-11-15T01:44:40;5.70;99.90
24676;DHT22;12799;53.690;10.114;2022-11-15T01:46:43;5.70;99.90
24676;DHT22;12799;53.690;10.114;2022-11-15T01:48:47;5.70;99.90
24676;DHT22;12799;53.690;10.114;2022-11-15T01:50:50;5.70;99.90
24676;DHT22;12799;53.690;10.114;2022-11-15T01:52:53;5.70;99.90
24676;DHT22;12799;53.690;10.114;2022-11-15T01:54:56;5.70;99.90
24676;DHT22;12799;53.690;10.114;2022-11-15T01:57:01;5.60;99.90
24676;DHT22;12799;53.690;10.114;2022-11-15T01:59:04;5.70;99.90
24676;DHT22;12799;53.690;10.114;2022-11-15T02:01:07;5.60;99.90
24676;DHT22;12799;53.690;10.114;2022-11-15T02:03:09;5.60;99.90
24676;DHT22;12799;53.690;10.114;2022-11-15T02:05:11;5.60;99.90
24676;DHT22;12799;53.690;10.114;2022-11-15T02:07:13;5.60;99.90
24676;DHT22;12799;53.690;10.114;2022-11-15T02:09:17;5.50;99.90
24676;DHT22;12799;53.690;10.114;2022-11-15T02:11:19;5.50;99.90
24676;DHT22;12799;53.690;10.114;2022-11-15T02:13:21;5.50;99.90
24676;DHT22;12799;53.690;10.114;2022-11-15T02:15:24;5.50;99.90
24676;DHT22;12799;53.690;10.114;2022-11-15T02:17:31;5.40;99.90
24676;DHT22;12799;53.690;10.114;2022-11-15T02:19:40;5.40;99.90
24676;DHT22;12799;53.690;10.114;2022-11-15T02:21:47;5.40;99.90
24676;DHT22;12799;53.690;10.114;2022-11-15T02:24:03;5.40;99.90
24676;DHT22;12799;53.690;10.114;2022-11-15T02:26:17;5.30;99.90
24676;DHT22;12799;53.690;10.114;2022-11-15T02:28:36;5.30;99.90
24676;DHT22;12799;53.690;10.114;2022-11-15T02:30:43;5.30;99.90
24676;DHT22;12799;53.690;10.114;2022-11-15T02:32:47;5.20;99.90
24676;DHT22;12799;53.690;10.114;2022-11-15T02:34:50;5.20;99.90
24676;DHT22;12799;53.690;10.114;2022-11-15T02:36:56;5.20;99.90
24676;DHT22;12799;53.690;10.114;2022-11-15T02:39:02;5.20;99.90
24676;DHT22;12799;53.690;10.114;2022-11-15T02:41:06;5.10;99.90
24676;DHT22;12799;53.690;10.114;2022-11-15T02:43:11;5.10;99.90
24676;DHT22;12799;53.690;10.114;2022-11-15T02:45:32;5.00;99.90
24676;DHT22;12799;53.690;10.114;2022-11-15T02:47:39;5.10;99.90
24676;DHT22;12799;53.690;10.114;2022-11-15T02:49:43;5.00;99.90
24676;DHT22;12799;53.690;10.114;2022-11-15T02:51:47;5.00;99.90
24676;DHT22;12799;53.690;10.114;2022-11-15T02:53:50;5.00;99.90
24676;DHT22;12799;53.690;10.114;2022-11-15T02:55:52;5.00;99.90
24676;DHT22;12799;53.690;10.114;2022-11-15T02:57:58;5.00;99.90
24676;DHT22;12799;53.690;10.114;2022-11-15T03:00:03;4.90;99.90
24676;DHT22;12799;53.690;10.114;2022-11-15T03:02:10;4.90;99.90
24676;DHT22;12799;53.690;10.114;2022-11-15T05:03:17;4.20;99.90
24676;DHT22;12799;53.690;10.114;2022-11-15T05:05:51;4.20;99.90
24676;DHT22;12799;53.690;10.114;2022-11-15T05:07:55;4.20;99.90
24676;DHT22;12799;53.690;10.114;2022-11-15T05:09:56;4.10;99.90
24676;DHT22;12799;53.690;10.114;2022-11-15T05:11:58;4.10;99.90
24676;DHT22;12799;53.690;10.114;2022-11-15T05:14:00;4.20;99.90
24676;DHT22;12799;53.690;10.114;2022-11-15T05:16:02;4.10;99.90
24676;DHT22;12799;53.690;10.114;2022-11-15T05:18:03;4.20;99.90
24676;DHT22;12799;53.690;10.114;2022-11-15T05:20:07;4.10;99.90
24676;DHT22;12799;53.690;10.114;2022-11-15T05:22:09;4.20;99.90
24676;DHT22;12799;53.690;10.114;2022-11-15T05:24:11;4.10;99.90
24676;DHT22;12799;53.690;10.114;2022-11-15T05:26:13;4.20;99.90
24676;DHT22;12799;53.690;10.114;2022-11-15T05:28:16;4.20;99.90
24676;DHT22;12799;53.690;10.114;2022-11-15T05:30:18;4.20;99.90
24676;DHT22;12799;53.690;10.114;2022-11-15T05:32:19;4.30;99.90
24676;DHT22;12799;53.690;10.114;2022-11-15T05:34:21;4.30;99.90
24676;DHT22;12799;53.690;10.114;2022-11-15T05:36:27;4.30;99.90
24676;DHT22;12799;53.690;10.114;2022-11-15T05:38:30;4.30;99.90
24676;DHT22;12799;53.690;10.114;2022-11-15T05:40:33;4.40;99.90
24676;DHT22;12799;53.690;10.114;2022-11-15T05:42:35;4.30;99.90
24676;DHT22;12799;53.690;10.114;2022-11-15T05:44:37;4.30;99.90
24676;DHT22;12799;53.690;10.114;2022-11-15T05:46:39;4.40;99.90
24676;DHT22;12799;53.690;10.114;2022-11-15T05:48:43;4.40;99.90
24676;DHT22;12799;53.690;10.114;2022-11-15T05:50:46;4.50;99.90
24676;DHT22;12799;53.690;10.114;2022-11-15T05:52:50;4.50;99.90
24676;DHT22;12799;53.690;10.114;2022-11-15T05:54:52;4.50;99.90
24676;DHT22;12799;53.690;10.114;2022-11-15T05:56:54;4.50;99.90
24676;DHT22;12799;53.690;10.114;2022-11-15T05:58:56;4.60;99.90
24676;DHT22;12799;53.690;10.114;2022-11-15T06:00:58;4.60;99.90
24676;DHT22;12799;53.690;10.114;2022-11-15T06:03:00;4.60;99.90
24676;DHT22;12799;53.690;10.114;2022-11-15T06:05:02;4.70;99.90
24676;DHT22;12799;53.690;10.114;2022-11-15T06:07:04;4.70;99.90
24676;DHT22;12799;53.690;10.114;2022-11-15T06:09:07;4.80;99.90
24676;DHT22;12799;53.690;10.114;2022-11-15T06:11:09;4.80;99.90
24676;DHT22;12799;53.690;10.114;2022-11-15T06:13:11;4.80;99.90
24676;DHT22;12799;53.690;10.114;2022-11-15T06:15:13;4.80;99.90
24676;DHT22;12799;53.690;10.114;2022-11-15T06:17:14;4.80;99.90
24676;DHT22;12799;53.690;10.114;2022-11-15T06:19:16;4.90;99.90
24676;DHT22;12799;53.690;10.114;2022-11-15T06:21:18;5.00;99.90
24676;DHT22;12799;53.690;10.114;2022-11-15T06:23:20;5.00;99.90
24676;DHT22;12799;53.690;10.114;2022-11-15T06:25:23;5.00;99.90
24676;DHT22;12799;53.690;10.114;2022-11-15T06:27:25;5.10;99.90
24676;DHT22;12799;53.690;10.114;2022-11-15T06:29:27;5.10;99.90
24676;DHT22;12799;53.690;10.114;2022-11-15T06:31:29;5.10;99.90
24676;DHT22;12799;53.690;10.114;2022-11-15T06:33:30;5.20;99.90
24676;DHT22;12799;53.690;10.114;2022-11-15T06:35:33;5.20;99.90
24676;DHT22;12799;53.690;10.114;2022-11-15T06:37:35;5.20;99.90
24676;DHT22;12799;53.690;10.114;2022-11-15T06:39:37;5.20;99.90
24676;DHT22;12799;53.690;10.114;2022-11-15T06:41:40;5.30;99.90
24676;DHT22;12799;53.690;10.114;2022-11-15T06:43:42;5.30;99.90
24676;DHT22;12799;53.690;10.114;2022-11-15T06:45:43;5.30;99.90
24676;DHT22;12799;53.690;10.114;2022-11-15T06:47:45;5.40;99.90
24676;DHT22;12799;53.690;10.114;2022-11-15T06:49:47;5.40;99.90
24676;DHT22;12799;53.690;10.114;2022-11-15T06:51:49;5.50;99.90
24676;DHT22;12799;53.690;10.114;2022-11-15T06:53:51;5.50;99.90
24676;DHT22;12799;53.690;10.114;2022-11-15T06:55:52;5.50;99.90
24676;DHT22;12799;53.690;10.114;2022-11-15T06:57:56;5.50;99.90
24676;DHT22;12799;53.690;10.114;2022-11-15T06:59:57;5.60;99.90
24676;DHT22;12799;53.690;10.114;2022-11-15T07:01:59;5.60;99.90
24676;DHT22;12799;53.690;10.114;2022-11-15T07:04:02;5.60;99.90
24676;DHT22;12799;53.690;10.114;2022-11-15T07:06:04;5.60;99.90
24676;DHT22;12799;53.690;10.114;2022-11-15T07:08:06;5.70;99.90
24676;DHT22;12799;53.690;10.114;2022-11-15T07:10:08;5.70;99.90
24676;DHT22;12799;53.690;10.114;2022-11-15T07:12:10;5.70;99.90
24676;DHT22;12799;53.690;10.114;2022-11-15T07:14:13;5.80;99.90
24676;DHT22;12799;53.690;10.114;2022-11-15T07:16:22;5.80;99.90
24676;DHT22;12799;53.690;10.114;2022-11-15T07:18:46;5.80;99.90
24676;DHT22;12799;53.690;10.114;2022-11-15T07:20:53;5.90;99.90
24676;DHT22;12799;53.690;10.114;2022-11-15T07:23:08;5.90;99.90
24676;DHT22;12799;53.690;10.114;2022-11-15T07:25:11;6.00;99.90
24676;DHT22;12799;53.690;10.114;2022-11-15T07:27:13;6.00;99.90
24676;DHT22;12799;53.690;10.114;2022-11-15T07:29:16;6.10;99.90
24676;DHT22;12799;53.690;10.114;2022-11-15T07:31:18;6.10;99.90
24676;DHT22;12799;53.690;10.114;2022-11-15T07:33:19;6.10;99.90
24676;DHT22;12799;53.690;10.114;2022-11-15T07:35:21;6.20;99.90
24676;DHT22;12799;53.690;10.114;2022-11-15T07:37:23;6.20;99.90
24676;DHT22;12799;53.690;10.114;2022-11-15T07:39:24;6.20;99.90
24676;DHT22;12799;53.690;10.114;2022-11-15T07:41:26;6.20;99.90
24676;DHT22;12799;53.690;10.114;2022-11-15T07:43:28;6.30;99.90
24676;DHT22;12799;53.690;10.114;2022-11-15T07:45:32;6.40;99.90
24676;DHT22;12799;53.690;10.114;2022-11-15T07:47:44;6.40;99.90
24676;DHT22;12799;53.690;10.114;2022-11-15T07:49:46;6.40;99.90
24676;DHT22;12799;53.690;10.114;2022-11-15T07:51:48;6.40;99.90
24676;DHT22;12799;53.690;10.114;2022-11-15T07:53:49;6.50;99.90
24676;DHT22;12799;53.690;10.114;2022-11-15T07:55:51;6.50;99.90
24676;DHT22;12799;53.690;10.114;2022-11-15T07:57:59;6.60;99.90
24676;DHT22;12799;53.690;10.114;2022-11-15T08:00:01;6.60;99.90
24676;DHT22;12799;53.690;10.114;2022-11-15T08:02:04;6.60;99.90
24676;DHT22;12799;53.690;10.114;2022-11-15T08:04:06;6.70;99.90
24676;DHT22;12799;53.690;10.114;2022-11-15T08:06:08;6.70;99.90
24676;DHT22;12799;53.690;10.114;2022-11-15T08:08:10;6.70;99.90
24676;DHT22;12799;53.690;10.114;2022-11-15T08:10:12;6.70;99.90
24676;DHT22;12799;53.690;10.114;2022-11-15T08:12:14;6.80;99.90
24676;DHT22;12799;53.690;10.114;2022-11-15T08:14:16;6.80;99.90
24676;DHT22;12799;53.690;10.114;2022-11-15T08:16:17;6.80;99.90
24676;DHT22;12799;53.690;10.114;2022-11-15T08:18:20;6.80;99.90
24676;DHT22;12799;53.690;10.114;2022-11-15T08:20:22;6.90;99.90
24676;DHT22;12799;53.690;10.114;2022-11-15T08:22:24;6.90;99.90
24676;DHT22;12799;53.690;10.114;2022-11-15T08:24:26;6.90;99.90
24676;DHT22;12799;53.690;10.114;2022-11-15T08:26:28;6.90;99.90
24676;DHT22;12799;53.690;10.114;2022-11-15T08:28:30;7.00;99.90
24676;DHT22;12799;53.690;10.114;2022-11-15T08:30:34;7.00;99.90
24676;DHT22;12799;53.690;10.114;2022-11-15T08:32:36;7.00;99.90
24676;DHT22;12799;53.690;10.114;2022-11-15T08:34:39;7.00;99.90
24676;DHT22;12799;53.690;10.114;2022-11-15T08:36:41;7.00;99.90
24676;DHT22;12799;53.690;10.114;2022-11-15T08:38:43;7.00;99.90
24676;DHT22;12799;53.690;10.114;2022-11-15T08:40:44;7.00;99.90
24676;DHT22;12799;53.690;10.114;2022-11-15T08:42:46;7.00;99.90
24676;DHT22;12799;53.690;10.114;2022-11-15T08:44:48;7.10;99.90
24676;DHT22;12799;53.690;10.114;2022-11-15T08:46:50;7.10;99.90
24676;DHT22;12799;53.690;10.114;2022-11-15T08:48:52;7.10;99.90
24676;DHT22;12799;53.690;10.114;2022-11-15T08:50:55;7.10;99.90
24676;DHT22;12799;53.690;10.114;2022-11-15T08:52:57;7.20;99.90
24676;DHT22;12799;53.690;10.114;2022-11-15T08:54:59;7.20;99.90
24676;DHT22;12799;53.690;10.114;2022-11-15T08:57:01;7.20;99.90
24676;DHT22;12799;53.690;10.114;2022-11-15T08:59:02;7.20;99.90
24676;DHT22;12799;53.690;10.114;2022-11-15T09:01:04;7.20;99.90
24676;DHT22;12799;53.690;10.114;2022-11-15T09:03:06;7.30;99.90
24676;DHT22;12799;53.690;10.114;2022-11-15T09:05:09;7.30;99.90
24676;DHT22;12799;53.690;10.114;2022-11-15T09:07:12;7.30;99.90
24676;DHT22;12799;53.690;10.114;2022-11-15T09:09:14;7.40;99.90
24676;DHT22;12799;53.690;10.114;2022-11-15T09:11:16;7.40;99.90
24676;DHT22;12799;53.690;10.114;2022-11-15T09:13:20;7.40;99.90
24676;DHT22;12799;53.690;10.114;2022-11-15T09:15:22;7.40;99.90
24676;DHT22;12799;53.690;10.114;2022-11-15T09:17:24;7.50;99.90
24676;DHT22;12799;53.690;10.114;2022-11-15T09:19:25;7.50;99.90
24676;DHT22;12799;53.690;10.114;2022-11-15T09:21:28;7.50;99.90
24676;DHT22;12799;53.690;10.114;2022-11-15T09:23:31;7.50;99.90
24676;DHT22;12799;53.690;10.114;2022-11-15T09:25:33;7.60;99.90
24676;DHT22;12799;53.690;10.114;2022-11-15T09:27:35;7.60;99.90
24676;DHT22;12799;53.690;10.114;2022-11-15T09:29:36;7.60;99.90
24676;DHT22;12799;53.690;10.114;2022-11-15T09:31:38;7.70;99.90
24676;DHT22;12799;53.690;10.114;2022-11-15T09:33:40;7.70;99.90
24676;DHT22;12799;53.690;10.114;2022-11-15T09:35:44;7.70;99.90
24676;DHT22;12799;53.690;10.114;2022-11-15T09:37:46;7.70;99.90
24676;DHT22;12799;53.690;10.114;2022-11-15T09:39:49;7.70;99.90
24676;DHT22;12799;53.690;10.114;2022-11-15T09:42:09;7.80;99.90
24676;DHT22;12799;53.690;10.114;2022-11-15T09:44:18;7.80;99.90
24676;DHT22;12799;53.690;10.114;2022-11-15T09:46:25;7.90;99.90
24676;DHT22;12799;53.690;10.114;2022-11-15T09:48:39;7.90;99.90
24676;DHT22;12799;53.690;10.114;2022-11-15T09:50:43;7.90;99.90
24676;DHT22;12799;53.690;10.114;2022-11-15T09:52:47;7.90;99.90
24676;DHT22;12799;53.690;10.114;2022-11-15T09:54:51;8.00;99.90
24676;DHT22;12799;53.690;10.114;2022-11-15T09:56:53;8.00;99.90
24676;DHT22;12799;53.690;10.114;2022-11-15T09:59:00;8.00;99.90
24676;DHT22;12799;53.690;10.114;2022-11-15T10:01:04;8.00;99.90
24676;DHT22;12799;53.690;10.114;2022-11-15T10:03:11;8.10;99.90
24676;DHT22;12799;53.690;10.114;2022-11-15T10:05:15;8.10;99.90
24676;DHT22;12799;53.690;10.114;2022-11-15T10:07:19;8.20;99.90
24676;DHT22;12799;53.690;10.114;2022-11-15T10:09:23;8.20;99.90
24676;DHT22;12799;53.690;10.114;2022-11-15T10:11:27;8.20;99.90
24676;DHT22;12799;53.690;10.114;2022-11-15T10:13:30;8.30;99.90
24676;DHT22;12799;53.690;10.114;2022-11-15T10:18:12;8.30;99.90
24676;DHT22;12799;53.690;10.114;2022-11-15T10:20:32;8.40;99.90
24676;DHT22;12799;53.690;10.114;2022-11-15T10:22:38;8.40;99.90
24676;DHT22;12799;53.690;10.114;2022-11-15T10:27:17;8.50;99.90
24676;DHT22;12799;53.690;10.114;2022-11-15T10:42:27;8.80;99.90
24676;DHT22;12799;53.690;10.114;2022-11-15T10:44:29;8.80;99.90
24676;DHT22;12799;53.690;10.114;2022-11-15T10:46:32;8.90;99.90
24676;DHT22;12799;53.690;10.114;2022-11-15T10:51:19;9.00;99.90
24676;DHT22;12799;53.690;10.114;2022-11-15T10:53:23;9.00;99.90
24676;DHT22;12799;53.690;10.114;2022-11-15T10:55:26;9.00;99.90
24676;DHT22;12799;53.690;10.114;2022-11-15T11:21:13;9.40;99.90
24676;DHT22;12799;53.690;10.114;2022-11-15T11:23:19;9.50;99.90
24676;DHT22;12799;53.690;10.114;2022-11-15T11:25:27;9.40;99.90
24676;DHT22;12799;53.690;10.114;2022-11-15T11:27:34;9.60;99.90
24676;DHT22;12799;53.690;10.114;2022-11-15T11:29:41;9.50;99.90
24676;DHT22;12799;53.690;10.114;2022-11-15T11:31:52;9.60;99.90
24676;DHT22;12799;53.690;10.114;2022-11-15T11:34:00;9.60;99.90
24676;DHT22;12799;53.690;10.114;2022-11-15T12:00:17;10.00;99.90
24676;DHT22;12799;53.690;10.114;2022-11-15T12:02:21;10.00;99.90
24676;DHT22;12799;53.690;10.114;2022-11-15T12:04:27;10.00;99.90
24676;DHT22;12799;53.690;10.114;2022-11-15T12:06:32;10.10;99.90
24676;DHT22;12799;53.690;10.114;2022-11-15T12:08:36;10.20;99.90
24676;DHT22;12799;53.690;10.114;2022-11-15T12:10:41;10.20;99.90
24676;DHT22;12799;53.690;10.114;2022-11-15T12:12:49;10.20;99.90
24676;DHT22;12799;53.690;10.114;2022-11-15T12:14:53;10.30;99.90
24676;DHT22;12799;53.690;10.114;2022-11-15T12:16:58;10.30;99.90
24676;DHT22;12799;53.690;10.114;2022-11-15T12:19:01;10.30;99.90
24676;DHT22;12799;53.690;10.114;2022-11-15T12:21:04;10.30;99.90
24676;DHT22;12799;53.690;10.114;2022-11-15T12:23:11;10.20;99.90
24676;DHT22;12799;53.690;10.114;2022-11-15T12:25:17;10.30;99.90
24676;DHT22;12799;53.690;10.114;2022-11-15T12:27:21;10.30;99.90
24676;DHT22;12799;53.690;10.114;2022-11-15T12:29:28;10.40;99.90
24676;DHT22;12799;53.690;10.114;2022-11-15T12:31:35;10.40;99.90
24676;DHT22;12799;53.690;10.114;2022-11-15T12:33:40;10.40;99.90
24676;DHT22;12799;53.690;10.114;2022-11-15T12:35:42;10.50;99.90
24676;DHT22;12799;53.690;10.114;2022-11-15T12:37:46;10.50;99.90
24676;DHT22;12799;53.690;10.114;2022-11-15T12:46:59;10.60;99.90
24676;DHT22;12799;53.690;10.114;2022-11-15T12:49:07;10.70;99.90
24676;DHT22;12799;53.690;10.114;2022-11-15T12:51:09;10.80;99.90
24676;DHT22;12799;53.690;10.114;2022-11-15T12:53:27;10.80;99.90
24676;DHT22;12799;53.690;10.114;2022-11-15T12:55:30;10.90;99.90
24676;DHT22;12799;53.690;10.114;2022-11-15T12:57:33;10.90;99.90
24676;DHT22;12799;53.690;10.114;2022-11-15T12:59:47;10.90;99.90
24676;DHT22;12799;53.690;10.114;2022-11-15T13:01:58;10.90;99.90
24676;DHT22;12799;53.690;10.114;2022-11-15T13:04:22;11.00;99.90
24676;DHT22;12799;53.690;10.114;2022-11-15T13:06:37;10.90;99.90
24676;DHT22;12799;53.690;10.114;2022-11-15T13:08:44;11.00;99.90
24676;DHT22;12799;53.690;10.114;2022-11-15T13:10:47;11.00;99.90
24676;DHT22;12799;53.690;10.114;2022-11-15T13:12:59;11.00;99.90
24676;DHT22;12799;53.690;10.114;2022-11-15T13:15:01;11.10;99.90
24676;DHT22;12799;53.690;10.114;2022-11-15T13:17:25;11.10;99.90
24676;DHT22;12799;53.690;10.114;2022-11-15T13:19:27;11.10;99.90
24676;DHT22;12799;53.690;10.114;2022-11-15T13:32:43;11.20;99.90
24676;DHT22;12799;53.690;10.114;2022-11-15T13:34:45;11.20;99.90
24676;DHT22;12799;53.690;10.114;2022-11-15T13:41:45;11.20;99.90
24676;DHT22;12799;53.690;10.114;2022-11-15T13:43:48;11.30;99.90
24676;DHT22;12799;53.690;10.114;2022-11-15T13:46:03;11.30;99.90
24676;DHT22;12799;53.690;10.114;2022-11-15T13:48:07;11.30;99.90
24676;DHT22;12799;53.690;10.114;2022-11-15T13:50:10;11.30;99.90
24676;DHT22;12799;53.690;10.114;2022-11-15T13:52:12;11.30;99.90
24676;DHT22;12799;53.690;10.114;2022-11-15T13:54:18;11.30;99.90
24676;DHT22;12799;53.690;10.114;2022-11-15T13:56:21;11.30;99.90
24676;DHT22;12799;53.690;10.114;2022-11-15T13:58:23;11.30;99.90
24676;DHT22;12799;53.690;10.114;2022-11-15T14:00:30;11.30;99.90
24676;DHT22;12799;53.690;10.114;2022-11-15T14:02:34;11.30;99.90
24676;DHT22;12799;53.690;10.114;2022-11-15T14:04:38;11.30;99.90
24676;DHT22;12799;53.690;10.114;2022-11-15T14:06:44;11.30;99.90
24676;DHT22;12799;53.690;10.114;2022-11-15T14:08:57;11.30;99.90
24676;DHT22;12799;53.690;10.114;2022-11-15T14:11:06;11.30;99.90
24676;DHT22;12799;53.690;10.114;2022-11-15T14:13:10;11.30;99.90
24676;DHT22;12799;53.690;10.114;2022-11-15T14:15:28;11.30;99.90
24676;DHT22;12799;53.690;10.114;2022-11-15T14:17:34;11.40;99.90
24676;DHT22;12799;53.690;10.114;2022-11-15T14:19:38;11.30;99.90
24676;DHT22;12799;53.690;10.114;2022-11-15T14:24:15;11.30;99.90
24676;DHT22;12799;53.690;10.114;2022-11-15T14:26:27;11.30;99.90
24676;DHT22;12799;53.690;10.114;2022-11-15T14:28:30;11.30;99.90
24676;DHT22;12799;53.690;10.114;2022-11-15T14:30:33;11.30;99.90
24676;DHT22;12799;53.690;10.114;2022-11-15T14:32:37;11.30;99.90
24676;DHT22;12799;53.690;10.114;2022-11-15T14:34:44;11.30;99.90
24676;DHT22;12799;53.690;10.114;2022-11-15T14:36:46;11.30;99.90
24676;DHT22;12799;53.690;10.114;2022-11-15T14:38:47;11.30;99.90
24676;DHT22;12799;53.690;10.114;2022-11-15T14:40:49;11.30;99.90
24676;DHT22;12799;53.690;10.114;2022-11-15T14:42:51;11.30;99.90
24676;DHT22;12799;53.690;10.114;2022-11-15T14:44:53;11.20;99.90
24676;DHT22;12799;53.690;10.114;2022-11-15T14:46:54;11.20;99.90
24676;DHT22;12799;53.690;10.114;2022-11-15T14:48:56;11.10;99.90
24676;DHT22;12799;53.690;10.114;2022-11-15T14:51:00;11.10;99.90
24676;DHT22;12799;53.690;10.114;2022-11-15T14:53:02;11.10;99.90
24676;DHT22;12799;53.690;10.114;2022-11-15T14:55:10;11.10;99.90
24676;DHT22;12799;53.690;10.114;2022-11-15T14:57:12;11.10;99.90
24676;DHT22;12799;53.690;10.114;2022-11-15T14:59:14;11.00;99.90
24676;DHT22;12799;53.690;10.114;2022-11-15T15:01:17;11.10;99.90
24676;DHT22;12799;53.690;10.114;2022-11-15T15:03:19;11.10;99.90
24676;DHT22;12799;53.690;10.114;2022-11-15T15:05:22;11.00;99.90
24676;DHT22;12799;53.690;10.114;2022-11-15T15:07:26;11.00;99.90
24676;DHT22;12799;53.690;10.114;2022-11-15T15:09:27;11.00;99.90
24676;DHT22;12799;53.690;10.114;2022-11-15T15:11:30;11.00;99.90
24676;DHT22;12799;53.690;10.114;2022-11-15T15:13:32;11.00;99.90
24676;DHT22;12799;53.690;10.114;2022-11-15T15:15:34;10.90;99.90
24676;DHT22;12799;53.690;10.114;2022-11-15T15:17:36;10.90;99.90
24676;DHT22;12799;53.690;10.114;2022-11-15T15:19:38;10.90;99.90
24676;DHT22;12799;53.690;10.114;2022-11-15T15:21:40;10.90;99.90
24676;DHT22;12799;53.690;10.114;2022-11-15T15:23:43;10.80;99.90
24676;DHT22;12799;53.690;10.114;2022-11-15T15:25:46;10.70;99.90
24676;DHT22;12799;53.690;10.114;2022-11-15T15:27:49;10.70;99.90
24676;DHT22;12799;53.690;10.114;2022-11-15T15:29:51;10.70;99.90
24676;DHT22;12799;53.690;10.114;2022-11-15T15:31:53;10.70;99.90
24676;DHT22;12799;53.690;10.114;2022-11-15T15:33:54;10.60;99.90
24676;DHT22;12799;53.690;10.114;2022-11-15T15:35:56;10.70;99.90
24676;DHT22;12799;53.690;10.114;2022-11-15T15:38:09;10.60;99.90
24676;DHT22;12799;53.690;10.114;2022-11-15T15:40:14;10.60;99.90
24676;DHT22;12799;53.690;10.114;2022-11-15T15:42:18;10.50;99.90
24676;DHT22;12799;53.690;10.114;2022-11-15T15:44:20;10.50;99.90
24676;DHT22;12799;53.690;10.114;2022-11-15T15:46:22;10.50;99.90
24676;DHT22;12799;53.690;10.114;2022-11-15T15:48:23;10.40;99.90
24676;DHT22;12799;53.690;10.114;2022-11-15T15:50:26;10.40;99.90
24676;DHT22;12799;53.690;10.114;2022-11-15T15:52:28;10.40;99.90
24676;DHT22;12799;53.690;10.114;2022-11-15T15:54:30;10.40;99.90
24676;DHT22;12799;53.690;10.114;2022-11-15T15:56:33;10.30;99.90
24676;DHT22;12799;53.690;10.114;2022-11-15T16:01:13;10.30;99.90
24676;DHT22;12799;53.690;10.114;2022-11-15T16:03:14;10.30;99.90
24676;DHT22;12799;53.690;10.114;2022-11-15T16:05:16;10.20;99.90
24676;DHT22;12799;53.690;10.114;2022-11-15T16:07:20;10.10;99.90
24676;DHT22;12799;53.690;10.114;2022-11-15T16:09:23;10.10;99.90
24676;DHT22;12799;53.690;10.114;2022-11-15T16:11:40;10.10;99.90
24676;DHT22;12799;53.690;10.114;2022-11-15T16:13:42;10.00;99.90
24676;DHT22;12799;53.690;10.114;2022-11-15T16:15:52;10.10;99.90
24676;DHT22;12799;53.690;10.114;2022-11-15T16:17:55;10.10;99.90
24676;DHT22;12799;53.690;10.114;2022-11-15T16:19:57;10.10;99.90
24676;DHT22;12799;53.690;10.114;2022-11-15T16:21:59;10.00;99.90
24676;DHT22;12799;53.690;10.114;2022-11-15T16:24:01;10.00;99.90
24676;DHT22;12799;53.690;10.114;2022-11-15T16:26:04;10.00;99.90
24676;DHT22;12799;53.690;10.114;2022-11-15T16:28:18;10.00;99.90
24676;DHT22;12799;53.690;10.114;2022-11-15T16:30:21;9.90;99.90
24676;DHT22;12799;53.690;10.114;2022-11-15T16:32:23;9.90;99.90
24676;DHT22;12799;53.690;10.114;2022-11-15T17:30:55;10.00;99.90
24676;DHT22;12799;53.690;10.114;2022-11-15T17:32:57;10.00;99.90